createdAt,value
2022-10-18T00:00:06.799Z,20.90
2022-10-18T00:03:09.131Z,20.80
2022-10-18T00:06:11.438Z,20.90
2022-10-18T00:09:15.190Z,20.90
2022-10-18T00:12:17.239Z,20.90
2022-10-18T00:15:19.508Z,20.90
2022-10-18T00:18:22.201Z,21.00
2022-10-18T00:21:25.551Z,21.00
2022-10-18T00:24:27.529Z,21.00
2022-10-18T00:27:31.073Z,21.00
2022-10-18T00:30:33.512Z,20.90
2022-10-18T00:33:35.707Z,21.00
2022-10-18T00:36:37.788Z,21.00
2022-10-18T00:39:40.001Z,20.90
2022-10-18T00:42:42.115Z,20.90
2022-10-18T00:45:44.350Z,20.90
2022-10-18T00:48:46.931Z,20.90
2022-10-18T00:51:53.654Z,20.90
2022-10-18T00:54:56.890Z,20.90
2022-10-18T00:57:59.323Z,20.90
2022-10-18T01:01:01.482Z,20.90
2022-10-18T01:04:04.564Z,20.90
2022-10-18T01:07:25.208Z,20.80
2022-10-18T01:10:30.051Z,20.80
2022-10-18T01:13:50.554Z,20.70
2022-10-18T01:17:18.002Z,20.50
2022-10-18T01:20:35.042Z,20.40
2022-10-18T01:24:14.896Z,20.20
2022-10-18T01:27:37.974Z,20.20
2022-10-18T01:31:00.875Z,20.20
2022-10-18T01:34:08.126Z,20.00
2022-10-18T01:37:14.800Z,20.00
2022-10-18T01:40:20.562Z,20.00
2022-10-18T01:43:24.505Z,19.90
2022-10-18T01:46:28.302Z,19.90
2022-10-18T01:49:30.470Z,19.80
2022-10-18T01:52:32.940Z,19.90
2022-10-18T01:55:46.583Z,19.90
2022-10-18T01:59:24.855Z,19.90
2022-10-18T02:02:38.935Z,19.90
2022-10-18T02:06:15.159Z,19.80
2022-10-18T02:09:23.093Z,19.90
2022-10-18T02:12:26.258Z,19.90
2022-10-18T02:15:35.536Z,20.00
2022-10-18T02:18:42.391Z,20.00
2022-10-18T02:21:48.137Z,20.10
2022-10-18T02:24:56.382Z,20.00
2022-10-18T02:27:59.609Z,20.00
2022-10-18T02:31:08.814Z,20.00
2022-10-18T02:34:21.677Z,20.00
2022-10-18T02:40:27.337Z,20.00
2022-10-18T02:43:30.318Z,20.00
2022-10-18T02:46:33.895Z,20.00
2022-10-18T02:49:35.928Z,20.00
2022-10-18T02:52:38.210Z,20.00
2022-10-18T02:55:40.300Z,20.00
2022-10-18T02:58:42.397Z,20.10
2022-10-18T03:01:45.472Z,20.10
2022-10-18T03:04:47.515Z,20.20
2022-10-18T03:07:49.560Z,20.10
2022-10-18T03:10:51.660Z,20.20
2022-10-18T03:13:54.589Z,20.10
2022-10-18T03:16:56.838Z,20.10
2022-10-18T03:19:58.854Z,20.20
2022-10-18T03:23:00.922Z,20.20
2022-10-18T03:26:03.498Z,20.20
2022-10-18T03:29:06.182Z,20.30
2022-10-18T03:32:08.497Z,20.30
2022-10-18T03:35:10.962Z,20.30
2022-10-18T03:38:13.297Z,20.20
2022-10-18T03:41:15.518Z,20.20
2022-10-18T03:44:17.611Z,20.20
2022-10-18T03:47:19.967Z,20.30
2022-10-18T03:50:21.967Z,20.20
2022-10-18T03:53:24.107Z,20.30
2022-10-18T03:56:26.219Z,20.30
2022-10-18T03:59:28.365Z,20.30
2022-10-18T04:02:30.752Z,20.30
2022-10-18T04:05:34.647Z,20.30
2022-10-18T04:08:36.804Z,20.20
2022-10-18T04:11:38.998Z,20.20
2022-10-18T04:14:41.119Z,20.20
2022-10-18T04:17:43.606Z,20.20
2022-10-18T04:20:45.758Z,20.20
2022-10-18T04:23:49.007Z,20.10
2022-10-18T04:26:51.671Z,20.10
2022-10-18T04:29:59.040Z,20.00
2022-10-18T04:33:01.159Z,20.00
2022-10-18T04:36:03.453Z,20.00
2022-10-18T04:39:05.550Z,20.10
2022-10-18T04:42:08.713Z,20.10
2022-10-18T04:45:12.214Z,20.00
2022-10-18T04:48:15.310Z,20.10
2022-10-18T04:51:17.410Z,20.10
2022-10-18T04:54:19.473Z,20.10
2022-10-18T04:57:21.946Z,20.10
2022-10-18T05:00:24.198Z,20.10
2022-10-18T05:03:26.265Z,20.10
2022-10-18T05:06:28.527Z,20.10
2022-10-18T05:09:30.609Z,20.10
2022-10-18T05:12:32.914Z,20.10
2022-10-18T05:15:35.323Z,20.10
2022-10-18T05:18:38.214Z,20.10
2022-10-18T05:21:40.335Z,20.10
2022-10-18T05:24:42.361Z,20.10
2022-10-18T05:27:44.636Z,20.10
2022-10-18T05:30:46.684Z,20.10
2022-10-18T05:33:49.303Z,20.10
2022-10-18T05:36:51.463Z,20.10
2022-10-18T05:39:53.473Z,20.10
2022-10-18T05:42:55.475Z,20.00
2022-10-18T05:45:57.757Z,20.00
2022-10-18T05:48:59.913Z,20.00
2022-10-18T05:52:02.193Z,20.00
2022-10-18T05:55:04.726Z,19.90
2022-10-18T05:58:06.779Z,19.90
2022-10-18T06:01:10.566Z,19.90
2022-10-18T06:04:12.626Z,19.90
2022-10-18T06:07:14.672Z,19.90
2022-10-18T06:10:16.993Z,19.90
2022-10-18T06:13:19.055Z,20.00
2022-10-18T06:16:22.837Z,20.00
2022-10-18T06:19:31.287Z,20.00
2022-10-18T06:22:33.510Z,20.00
2022-10-18T06:25:35.780Z,20.00
2022-10-18T06:28:38.446Z,20.10
2022-10-18T06:31:40.633Z,20.10
2022-10-18T06:34:42.939Z,20.20
2022-10-18T06:37:45.039Z,20.20
2022-10-18T06:40:48.322Z,20.20
2022-10-18T06:43:51.376Z,20.20
2022-10-18T06:46:53.691Z,20.20
2022-10-18T06:49:55.795Z,20.20
2022-10-18T06:52:58.168Z,20.20
2022-10-18T06:56:01.868Z,20.20
2022-10-18T06:59:05.039Z,20.30
2022-10-18T07:02:07.356Z,20.30
2022-10-18T07:05:10.297Z,20.30
2022-10-18T07:08:12.427Z,20.40
2022-10-18T07:11:18.675Z,20.40
2022-10-18T07:14:22.311Z,20.40
2022-10-18T07:17:27.787Z,20.50
2022-10-18T07:20:29.858Z,20.50
2022-10-18T07:23:40.104Z,20.60
2022-10-18T07:26:42.662Z,20.70
2022-10-18T07:29:44.726Z,20.70
2022-10-18T07:32:46.929Z,20.70
2022-10-18T07:35:49.025Z,20.70
2022-10-18T07:38:52.610Z,20.70
2022-10-18T07:41:54.744Z,20.70
2022-10-18T07:44:56.792Z,20.70
2022-10-18T07:47:58.990Z,20.80
2022-10-18T07:51:02.140Z,20.90
2022-10-18T07:54:04.503Z,21.00
2022-10-18T07:57:06.666Z,21.10
2022-10-18T08:00:09.345Z,21.00
2022-10-18T08:03:11.556Z,21.00
2022-10-18T08:06:16.784Z,21.10
2022-10-18T08:09:19.138Z,21.20
2022-10-18T08:12:21.221Z,21.50
2022-10-18T08:15:25.949Z,21.70
2022-10-18T08:18:28.150Z,21.90
2022-10-18T08:21:30.249Z,22.30
2022-10-18T08:24:32.303Z,22.70
2022-10-18T08:27:34.957Z,22.90
2022-10-18T08:30:37.376Z,23.20
2022-10-18T08:33:39.994Z,23.40
2022-10-18T08:36:42.060Z,23.50
2022-10-18T08:39:47.040Z,23.20
2022-10-18T08:43:05.563Z,23.20
2022-10-18T08:46:11.891Z,23.10
2022-10-18T08:49:46.841Z,23.20
2022-10-18T08:53:21.821Z,23.30
2022-10-18T08:56:24.983Z,23.30
2022-10-18T08:59:34.952Z,23.40
2022-10-18T09:02:52.257Z,23.40
2022-10-18T09:06:11.881Z,23.30
2022-10-18T09:09:49.375Z,23.60
2022-10-18T09:13:22.294Z,23.50
2022-10-18T09:16:44.391Z,23.50
2022-10-18T09:20:12.110Z,23.00
2022-10-18T09:23:40.622Z,23.10
2022-10-18T09:26:48.104Z,23.00
2022-10-18T09:30:06.158Z,22.90
2022-10-18T09:33:30.069Z,22.90
2022-10-18T09:36:37.272Z,22.80
2022-10-18T09:39:41.074Z,22.90
2022-10-18T09:42:57.145Z,23.10
2022-10-18T09:45:59.791Z,23.30
2022-10-18T09:49:23.446Z,23.60
2022-10-18T09:52:51.297Z,24.20
2022-10-18T09:56:09.826Z,26.20
2022-10-18T09:59:46.946Z,28.10
2022-10-18T10:02:49.027Z,29.40
2022-10-18T10:06:22.437Z,31.10
2022-10-18T10:09:30.538Z,31.40
2022-10-18T10:12:40.402Z,31.50
2022-10-18T10:15:52.096Z,32.40
2022-10-18T10:18:54.714Z,32.30
2022-10-18T10:22:04.088Z,31.30
2022-10-18T10:25:07.677Z,30.30
2022-10-18T10:28:19.871Z,29.60
2022-10-18T10:31:24.602Z,28.60
2022-10-18T10:34:29.804Z,28.10
2022-10-18T10:37:36.234Z,27.10
2022-10-18T10:40:46.289Z,26.50
2022-10-18T10:43:49.828Z,26.40
2022-10-18T10:46:53.499Z,26.60
2022-10-18T10:49:56.593Z,27.00
2022-10-18T10:52:59.254Z,28.50
2022-10-18T10:56:03.376Z,29.50
2022-10-18T10:59:26.602Z,29.70
2022-10-18T11:02:36.903Z,29.10
2022-10-18T11:05:53.193Z,29.50
2022-10-18T11:08:58.139Z,28.70
2022-10-18T11:12:12.871Z,28.40
2022-10-18T11:15:28.836Z,28.70
2022-10-18T11:18:34.136Z,29.10
2022-10-18T11:21:37.466Z,30.20
2022-10-18T11:24:41.562Z,30.20
2022-10-18T11:27:56.627Z,30.30
2022-10-18T11:31:30.799Z,29.40
2022-10-18T11:34:39.043Z,28.60
2022-10-18T11:37:46.928Z,28.20
2022-10-18T11:40:54.822Z,27.50
2022-10-18T11:44:04.281Z,27.00
2022-10-18T11:47:25.907Z,27.20
2022-10-18T11:51:12.703Z,27.20
2022-10-18T11:54:41.657Z,27.20
2022-10-18T11:57:57.363Z,27.20
2022-10-18T12:01:15.362Z,26.90
2022-10-18T12:04:24.678Z,27.00
2022-10-18T12:07:38.593Z,27.00
2022-10-18T12:11:00.359Z,27.10
2022-10-18T12:14:19.507Z,26.50
2022-10-18T12:17:51.271Z,26.70
2022-10-18T12:20:58.261Z,26.10
2022-10-18T12:24:03.311Z,25.80
2022-10-18T12:27:05.883Z,25.80
2022-10-18T12:30:20.719Z,25.60
2022-10-18T12:33:29.311Z,25.60
2022-10-18T12:37:08.894Z,25.70
2022-10-18T12:40:21.763Z,25.60
2022-10-18T12:43:36.910Z,25.50
2022-10-18T12:46:49.608Z,25.80
2022-10-18T12:50:28.544Z,26.10
2022-10-18T12:53:32.175Z,26.10
2022-10-18T12:56:39.499Z,25.80
2022-10-18T12:59:42.152Z,25.80
2022-10-18T13:02:44.173Z,25.80
2022-10-18T13:05:55.024Z,25.80
2022-10-18T13:09:18.331Z,25.70
2022-10-18T13:12:20.362Z,25.80
2022-10-18T13:15:48.482Z,26.00
2022-10-18T13:19:14.236Z,26.10
2022-10-18T13:22:43.801Z,26.20
2022-10-18T13:26:11.488Z,26.20
2022-10-18T13:29:47.699Z,25.80
2022-10-18T13:33:28.596Z,26.10
2022-10-18T13:36:33.422Z,26.10
2022-10-18T13:39:35.994Z,25.90
2022-10-18T13:42:38.082Z,26.00
2022-10-18T13:45:53.208Z,26.00
2022-10-18T13:49:01.040Z,26.10
2022-10-18T13:52:27.253Z,25.80
2022-10-18T13:55:52.088Z,25.50
2022-10-18T13:59:41.763Z,25.20
2022-10-18T14:03:27.070Z,24.80
2022-10-18T14:06:41.493Z,24.80
2022-10-18T14:09:56.146Z,24.70
2022-10-18T14:13:04.576Z,24.90
2022-10-18T14:16:21.727Z,25.10
2022-10-18T14:19:40.857Z,25.20
2022-10-18T14:23:26.319Z,24.90
2022-10-18T14:26:29.372Z,24.80
2022-10-18T14:29:31.743Z,24.90
2022-10-18T14:32:34.137Z,25.10
2022-10-18T14:35:36.164Z,25.10
2022-10-18T14:38:55.673Z,25.10
2022-10-18T14:41:59.390Z,24.90
2022-10-18T14:45:01.509Z,25.20
2022-10-18T14:48:22.794Z,25.30
2022-10-18T14:51:26.066Z,25.00
2022-10-18T14:54:37.925Z,24.90
2022-10-18T14:57:40.267Z,24.80
2022-10-18T15:00:51.725Z,24.80
2022-10-18T15:04:16.154Z,24.80
2022-10-18T15:07:18.637Z,24.70
2022-10-18T15:10:29.327Z,24.60
2022-10-18T15:13:32.818Z,24.30
2022-10-18T15:16:38.643Z,24.50
2022-10-18T15:19:53.120Z,24.60
2022-10-18T15:23:25.851Z,24.40
2022-10-18T15:26:30.629Z,24.30
2022-10-18T15:29:35.557Z,24.20
2022-10-18T15:32:38.013Z,24.00
2022-10-18T15:35:41.261Z,23.90
2022-10-18T15:38:47.540Z,23.90
2022-10-18T15:42:01.647Z,23.90
2022-10-18T15:45:25.377Z,24.00
2022-10-18T15:48:41.734Z,23.90
2022-10-18T15:51:55.807Z,23.90
2022-10-18T15:54:58.996Z,24.00
2022-10-18T15:58:05.830Z,24.10
2022-10-18T16:01:15.358Z,24.00
2022-10-18T16:04:26.689Z,23.90
2022-10-18T16:07:28.755Z,23.90
2022-10-18T16:10:30.939Z,23.80
2022-10-18T16:13:33.130Z,23.90
2022-10-18T16:16:35.397Z,23.60
2022-10-18T16:19:37.500Z,23.60
2022-10-18T16:22:39.782Z,23.60
2022-10-18T16:25:42.269Z,23.60
2022-10-18T16:28:45.530Z,23.50
2022-10-18T16:31:48.224Z,23.50
2022-10-18T16:34:50.270Z,23.50
2022-10-18T16:37:52.274Z,23.50
2022-10-18T16:40:54.395Z,23.40
2022-10-18T16:43:56.429Z,23.40
2022-10-18T16:46:58.495Z,23.40
2022-10-18T16:50:06.475Z,23.40
2022-10-18T16:53:09.356Z,23.30
2022-10-18T16:56:26.918Z,23.30
2022-10-18T16:59:31.597Z,23.20
2022-10-18T17:02:33.936Z,23.20
2022-10-18T17:05:36.191Z,23.10
2022-10-18T17:08:38.710Z,23.10
2022-10-18T17:11:42.067Z,23.10
2022-10-18T17:14:44.105Z,23.10
2022-10-18T17:17:47.781Z,23.00
2022-10-18T17:20:50.520Z,23.00
2022-10-18T17:23:52.613Z,23.00
2022-10-18T17:26:54.621Z,22.90
2022-10-18T17:29:57.675Z,23.00
2022-10-18T17:32:59.770Z,23.00
2022-10-18T17:36:05.409Z,23.00
2022-10-18T17:39:07.706Z,22.90
2022-10-18T17:42:09.709Z,22.80
2022-10-18T17:45:12.467Z,22.80
2022-10-18T17:48:14.502Z,22.70
2022-10-18T17:51:17.997Z,22.70
2022-10-18T17:54:20.000Z,22.60
2022-10-18T17:57:22.451Z,22.60
2022-10-18T18:00:24.721Z,22.60
2022-10-18T18:03:26.823Z,22.60
2022-10-18T18:06:31.830Z,22.60
2022-10-18T18:09:33.962Z,22.50
2022-10-18T18:12:36.209Z,22.40
2022-10-18T18:15:38.491Z,22.40
2022-10-18T18:18:41.223Z,22.50
2022-10-18T18:21:44.028Z,22.50
2022-10-18T18:24:46.096Z,22.40
2022-10-18T18:27:48.107Z,22.30
2022-10-18T18:30:50.266Z,22.30
2022-10-18T18:33:54.273Z,22.20
2022-10-18T18:36:56.387Z,22.20
2022-10-18T18:39:58.468Z,22.30
2022-10-18T18:43:19.008Z,22.30
2022-10-18T18:46:32.988Z,22.30
2022-10-18T18:49:35.434Z,22.30
2022-10-18T18:52:37.490Z,22.20
2022-10-18T18:55:42.059Z,22.10
2022-10-18T18:58:45.653Z,22.00
2022-10-18T19:01:47.755Z,22.00
2022-10-18T19:04:50.884Z,22.00
2022-10-18T19:07:52.902Z,22.00
2022-10-18T19:10:54.944Z,22.00
2022-10-18T19:13:56.995Z,21.90
2022-10-18T19:16:59.365Z,21.90
2022-10-18T19:20:01.420Z,21.90
2022-10-18T19:23:03.477Z,21.90
2022-10-18T19:26:37.276Z,22.00
2022-10-18T19:29:40.708Z,22.00
2022-10-18T19:32:43.138Z,22.00
2022-10-18T19:35:45.182Z,21.90
2022-10-18T19:38:47.316Z,21.80
2022-10-18T19:41:52.595Z,21.80
2022-10-18T19:44:54.586Z,21.70
2022-10-18T19:47:56.563Z,21.80
2022-10-18T19:51:04.437Z,21.80
2022-10-18T19:54:06.536Z,21.70
2022-10-18T19:57:11.809Z,21.70
2022-10-18T20:00:17.319Z,21.60
2022-10-18T20:03:22.735Z,21.60
2022-10-18T20:06:25.296Z,21.60
2022-10-18T20:09:27.409Z,21.60
2022-10-18T20:12:30.347Z,21.60
2022-10-18T20:15:32.529Z,21.50
2022-10-18T20:18:35.346Z,21.50
2022-10-18T20:21:37.382Z,21.60
2022-10-18T20:24:39.441Z,21.60
2022-10-18T20:27:41.423Z,21.60
2022-10-18T20:30:43.400Z,21.60
2022-10-18T20:33:46.965Z,21.50
2022-10-18T20:36:48.960Z,21.40
2022-10-18T20:39:50.946Z,21.30
2022-10-18T20:42:53.035Z,21.30
2022-10-18T20:45:59.202Z,21.20
2022-10-18T20:49:02.014Z,21.20
2022-10-18T20:52:04.287Z,21.20
2022-10-18T20:55:06.908Z,21.20
2022-10-18T20:58:09.118Z,21.20
2022-10-18T21:01:20.155Z,21.20
2022-10-18T21:04:22.278Z,21.20
2022-10-18T21:07:24.342Z,21.20
2022-10-18T21:10:26.677Z,21.20
2022-10-18T21:13:28.700Z,21.20
2022-10-18T21:16:32.329Z,21.00
2022-10-18T21:19:34.639Z,21.00
2022-10-18T21:22:37.423Z,21.10
2022-10-18T21:25:49.713Z,21.00
2022-10-18T21:28:57.848Z,21.10
2022-10-18T21:32:01.206Z,21.10
2022-10-18T21:35:03.702Z,20.90
2022-10-18T21:38:06.021Z,21.00
2022-10-18T21:41:12.671Z,21.00
2022-10-18T21:44:16.746Z,21.10
2022-10-18T21:47:18.768Z,21.20
2022-10-18T21:50:20.775Z,21.20
2022-10-18T21:53:22.756Z,21.20
2022-10-18T21:56:30.510Z,21.10
2022-10-18T21:59:32.572Z,21.10
2022-10-18T22:02:34.899Z,21.10
2022-10-18T22:05:37.316Z,21.20
2022-10-18T22:08:40.450Z,21.20
2022-10-18T22:11:45.962Z,21.20
2022-10-18T22:14:49.273Z,21.10
2022-10-18T22:17:51.841Z,21.10
2022-10-18T22:20:59.038Z,21.10
2022-10-18T22:24:05.612Z,21.10
2022-10-18T22:27:07.746Z,21.10
2022-10-18T22:30:10.460Z,21.10
2022-10-18T22:33:18.786Z,21.10
2022-10-18T22:36:22.810Z,21.00
2022-10-18T22:39:27.474Z,21.00
2022-10-18T22:45:38.415Z,21.00
2022-10-18T22:48:40.759Z,21.00
2022-10-18T22:51:42.930Z,21.00
2022-10-18T22:54:45.007Z,20.90
2022-10-18T22:57:47.019Z,21.00
2022-10-18T23:00:49.329Z,21.00
2022-10-18T23:03:59.886Z,21.00
2022-10-18T23:07:01.959Z,21.00
2022-10-18T23:10:04.353Z,21.00
2022-10-18T23:13:06.904Z,21.00
2022-10-18T23:16:08.986Z,21.00
2022-10-18T23:19:15.215Z,21.00
2022-10-18T23:22:21.302Z,21.10
2022-10-18T23:25:24.115Z,21.00
2022-10-18T23:28:26.286Z,21.00
2022-10-18T23:31:31.399Z,21.00
2022-10-18T23:34:33.440Z,21.00
2022-10-18T23:37:35.783Z,20.90
2022-10-18T23:40:38.079Z,20.90
2022-10-18T23:43:40.819Z,21.00
2022-10-18T23:46:42.854Z,20.90
2022-10-18T23:49:44.913Z,20.90
2022-10-18T23:52:46.946Z,21.00
2022-10-18T23:55:54.966Z,20.90
2022-10-18T23:58:57.071Z,21.00
